createdAt,value
2023-05-25T00:02:17.955Z,5.47
2023-05-25T00:04:48.408Z,5.22
2023-05-25T00:07:16.229Z,4.65
2023-05-25T00:09:46.627Z,5.28
2023-05-25T00:12:14.258Z,4.88
2023-05-25T00:14:40.899Z,4.72
2023-05-25T00:17:10.557Z,5.75
2023-05-25T00:19:38.120Z,4.75
2023-05-25T00:22:04.852Z,5.05
2023-05-25T00:24:31.540Z,4.65
2023-05-25T00:26:58.504Z,5.60
2023-05-25T00:29:26.010Z,4.97
2023-05-25T00:31:53.755Z,5.45
2023-05-25T00:34:20.800Z,5.30
2023-05-25T00:36:48.271Z,5.50
2023-05-25T00:39:18.789Z,5.35
2023-05-25T00:41:46.221Z,5.22
2023-05-25T00:44:16.625Z,4.80
2023-05-25T00:46:51.930Z,6.15
2023-05-25T00:49:20.110Z,5.60
2023-05-25T00:51:48.023Z,5.13
2023-05-25T00:54:19.473Z,5.00
2023-05-25T00:56:57.049Z,5.25
2023-05-25T00:59:35.683Z,5.35
2023-05-25T01:02:08.790Z,5.97
2023-05-25T01:04:38.545Z,4.97
2023-05-25T01:07:06.939Z,4.57
2023-05-25T01:09:35.002Z,5.85
2023-05-25T01:12:02.704Z,4.68
2023-05-25T01:14:29.861Z,5.03
2023-05-25T01:16:57.147Z,4.82
2023-05-25T01:19:23.621Z,5.50
2023-05-25T01:22:08.142Z,5.28
2023-05-25T01:24:42.940Z,5.88
2023-05-25T01:27:15.366Z,5.60
2023-05-25T01:29:44.371Z,6.63
2023-05-25T01:32:11.484Z,6.43
2023-05-25T01:34:43.432Z,6.65
2023-05-25T01:37:13.360Z,6.38
2023-05-25T01:39:41.196Z,6.13
2023-05-25T01:42:07.997Z,6.97
2023-05-25T01:44:35.352Z,7.78
2023-05-25T01:47:05.862Z,7.30
2023-05-25T01:49:58.353Z,6.50
2023-05-25T01:52:32.361Z,6.28
2023-05-25T01:55:04.586Z,6.30
2023-05-25T01:57:36.163Z,6.72
2023-05-25T02:00:04.633Z,6.22
2023-05-25T02:02:33.061Z,5.70
2023-05-25T02:04:59.777Z,6.70
2023-05-25T02:07:26.244Z,7.22
2023-05-25T02:09:52.751Z,7.93
2023-05-25T02:12:19.314Z,6.45
2023-05-25T02:14:48.412Z,7.65
2023-05-25T02:17:17.811Z,6.68
2023-05-25T02:19:45.510Z,6.60
2023-05-25T02:22:12.189Z,6.55
2023-05-25T02:24:38.641Z,6.63
2023-05-25T02:27:06.676Z,6.72
2023-05-25T02:29:33.235Z,6.35
2023-05-25T02:31:59.662Z,6.78
2023-05-25T02:34:26.158Z,6.35
2023-05-25T02:36:52.625Z,6.57
2023-05-25T02:39:19.095Z,6.65
2023-05-25T02:41:45.599Z,6.65
2023-05-25T02:44:12.227Z,6.50
2023-05-25T02:46:38.763Z,6.88
2023-05-25T02:49:05.504Z,7.35
2023-05-25T02:51:32.423Z,7.90
2023-05-25T02:53:59.703Z,7.97
2023-05-25T02:56:27.453Z,8.07
2023-05-25T02:58:53.990Z,7.82
2023-05-25T03:01:20.741Z,7.95
2023-05-25T03:03:52.098Z,7.78
2023-05-25T03:06:18.788Z,7.68
2023-05-25T03:08:45.371Z,7.97
2023-05-25T03:11:11.798Z,8.13
2023-05-25T03:13:38.384Z,7.68
2023-05-25T03:16:05.058Z,9.20
2023-05-25T03:18:31.626Z,8.60
2023-05-25T03:20:58.133Z,8.70
2023-05-25T03:23:24.600Z,8.40
2023-05-25T03:25:51.485Z,9.90
2023-05-25T03:28:18.098Z,8.50
2023-05-25T03:30:44.590Z,8.60
2023-05-25T03:33:13.809Z,9.30
2023-05-25T03:35:40.663Z,8.00
2023-05-25T03:38:07.329Z,8.65
2023-05-25T03:40:33.840Z,9.75
2023-05-25T03:43:00.360Z,9.23
2023-05-25T03:45:26.831Z,8.75
2023-05-25T03:47:53.468Z,8.43
2023-05-25T03:50:20.466Z,10.15
2023-05-25T03:52:46.995Z,10.05
2023-05-25T03:55:15.190Z,9.85
2023-05-25T03:57:42.171Z,9.55
2023-05-25T04:00:12.146Z,9.30
2023-05-25T04:02:38.722Z,9.20
2023-05-25T04:05:05.694Z,10.63
2023-05-25T04:07:32.207Z,11.43
2023-05-25T04:09:59.714Z,11.75
2023-05-25T04:12:27.513Z,10.63
2023-05-25T04:14:54.115Z,10.68
2023-05-25T04:17:24.877Z,9.13
2023-05-25T04:19:52.424Z,10.38
2023-05-25T04:22:19.176Z,9.77
2023-05-25T04:24:46.300Z,10.50
2023-05-25T04:27:14.398Z,11.18
2023-05-25T04:29:43.908Z,10.68
2023-05-25T04:32:10.459Z,11.38
2023-05-25T04:34:37.692Z,11.48
2023-05-25T04:37:05.676Z,10.52
2023-05-25T04:39:32.753Z,10.73
2023-05-25T04:41:59.253Z,11.13
2023-05-25T04:44:25.788Z,11.68
2023-05-25T04:46:53.636Z,11.73
2023-05-25T04:49:21.427Z,11.68
2023-05-25T04:51:48.330Z,11.18
2023-05-25T04:54:14.829Z,11.90
2023-05-25T04:56:41.324Z,14.63
2023-05-25T04:59:07.822Z,13.18
2023-05-25T05:01:40.442Z,12.30
2023-05-25T05:04:08.070Z,13.15
2023-05-25T05:06:34.716Z,12.90
2023-05-25T05:09:01.506Z,12.73
2023-05-25T05:11:28.884Z,12.40
2023-05-25T05:13:56.424Z,13.70
2023-05-25T05:16:23.107Z,11.88
2023-05-25T05:18:49.720Z,14.05
2023-05-25T05:21:16.269Z,13.82
2023-05-25T05:23:43.620Z,13.38
2023-05-25T05:26:11.530Z,13.85
2023-05-25T05:28:38.177Z,13.30
2023-05-25T05:31:04.723Z,13.20
2023-05-25T05:33:31.389Z,13.05
2023-05-25T05:35:58.008Z,14.48
2023-05-25T05:38:24.514Z,14.77
2023-05-25T05:40:51.468Z,16.60
2023-05-25T05:43:17.929Z,16.80
2023-05-25T05:45:44.501Z,15.13
2023-05-25T05:48:11.461Z,14.93
2023-05-25T05:50:40.976Z,14.80
2023-05-25T05:53:09.669Z,12.38
2023-05-25T05:55:36.212Z,13.65
2023-05-25T05:58:02.658Z,14.52
2023-05-25T06:00:29.192Z,13.60
2023-05-25T06:02:56.069Z,12.35
2023-05-25T06:05:23.194Z,12.38
2023-05-25T06:07:49.736Z,11.95
2023-05-25T06:10:16.253Z,11.77
2023-05-25T06:12:42.765Z,12.27
2023-05-25T06:15:09.662Z,12.15
2023-05-25T06:17:37.031Z,11.13
2023-05-25T06:20:03.772Z,12.30
2023-05-25T06:22:30.270Z,12.90
2023-05-25T06:24:56.817Z,13.75
2023-05-25T06:27:23.443Z,12.77
2023-05-25T06:29:49.954Z,12.70
2023-05-25T06:32:16.673Z,12.82
2023-05-25T06:34:43.278Z,11.13
2023-05-25T06:37:09.868Z,12.63
2023-05-25T06:39:36.417Z,12.18
2023-05-25T06:42:02.897Z,12.07
2023-05-25T06:44:29.830Z,13.00
2023-05-25T06:46:56.371Z,12.50
2023-05-25T06:49:22.861Z,14.02
2023-05-25T06:51:51.233Z,12.18
2023-05-25T06:54:19.549Z,11.88
2023-05-25T06:56:46.425Z,12.68
2023-05-25T06:59:12.934Z,12.63
2023-05-25T07:01:39.483Z,13.93
2023-05-25T07:04:05.971Z,13.32
2023-05-25T07:06:33.062Z,13.20
2023-05-25T07:08:59.558Z,13.88
2023-05-25T07:11:26.572Z,13.20
2023-05-25T07:13:53.070Z,12.23
2023-05-25T07:16:19.658Z,13.13
2023-05-25T07:18:46.749Z,13.00
2023-05-25T07:21:13.219Z,12.45
2023-05-25T07:23:42.229Z,13.18
2023-05-25T07:26:09.125Z,11.68
2023-05-25T07:28:35.584Z,12.55
2023-05-25T07:31:02.147Z,11.75
2023-05-25T07:33:28.601Z,10.73
2023-05-25T07:35:55.155Z,11.20
2023-05-25T07:38:21.670Z,12.35
2023-05-25T07:40:49.134Z,12.50
2023-05-25T07:43:15.679Z,11.82
2023-05-25T07:45:42.258Z,12.98
2023-05-25T07:48:09.528Z,13.70
2023-05-25T07:50:36.142Z,12.80
2023-05-25T07:53:02.673Z,12.27
2023-05-25T07:55:29.224Z,12.10
2023-05-25T07:57:56.181Z,12.85
2023-05-25T08:00:22.788Z,13.15
2023-05-25T08:02:49.373Z,12.85
2023-05-25T08:05:16.279Z,12.55
2023-05-25T08:07:43.081Z,13.00
2023-05-25T08:10:09.916Z,12.65
2023-05-25T08:12:47.859Z,11.98
2023-05-25T08:15:15.255Z,12.32
2023-05-25T08:17:42.235Z,11.27
2023-05-25T08:20:10.153Z,11.27
2023-05-25T08:22:36.739Z,10.95
2023-05-25T08:25:06.880Z,11.73
2023-05-25T08:27:35.405Z,11.52
2023-05-25T08:30:02.701Z,10.65
2023-05-25T08:32:29.174Z,10.80
2023-05-25T08:34:56.054Z,11.15
2023-05-25T08:37:23.545Z,11.52
2023-05-25T08:39:50.443Z,10.20
2023-05-25T08:42:16.906Z,11.77
2023-05-25T08:44:43.539Z,10.93
2023-05-25T08:47:12.232Z,10.57
2023-05-25T08:49:41.127Z,11.88
2023-05-25T08:52:13.442Z,10.32
2023-05-25T08:54:43.973Z,11.48
2023-05-25T08:57:15.207Z,12.52
2023-05-25T08:59:49.118Z,11.65
2023-05-25T09:02:53.308Z,10.93
2023-05-25T09:05:20.682Z,12.60
2023-05-25T09:07:47.955Z,12.52
2023-05-25T09:10:14.905Z,12.20
2023-05-25T09:12:42.513Z,13.40
2023-05-25T09:15:12.824Z,12.93
2023-05-25T09:17:41.108Z,12.98
2023-05-25T09:20:10.614Z,12.98
2023-05-25T09:22:37.187Z,13.13
2023-05-25T09:25:08.532Z,14.05
2023-05-25T09:27:39.355Z,13.52
2023-05-25T09:30:06.649Z,12.97
2023-05-25T09:32:33.427Z,14.20
2023-05-25T09:35:07.714Z,14.07
2023-05-25T09:37:35.176Z,13.93
2023-05-25T09:40:01.990Z,13.02
2023-05-25T09:42:28.483Z,13.60
2023-05-25T09:44:54.973Z,12.15
2023-05-25T09:47:21.685Z,13.20
2023-05-25T09:49:50.492Z,13.93
2023-05-25T09:52:17.079Z,12.65
2023-05-25T09:54:48.435Z,14.52
2023-05-25T09:57:16.316Z,12.13
2023-05-25T09:59:43.687Z,11.82
2023-05-25T10:02:10.190Z,13.25
2023-05-25T10:04:36.921Z,12.27
2023-05-25T10:07:06.956Z,13.38
2023-05-25T10:09:39.857Z,13.07
2023-05-25T10:12:07.658Z,13.27
2023-05-25T10:14:37.288Z,13.38
2023-05-25T10:17:08.899Z,12.63
2023-05-25T10:19:45.544Z,11.60
2023-05-25T10:22:22.097Z,12.13
2023-05-25T10:25:04.694Z,11.73
2023-05-25T10:27:40.679Z,10.85
2023-05-25T10:30:09.029Z,11.13
2023-05-25T10:32:37.963Z,11.88
2023-05-25T10:35:07.109Z,12.15
2023-05-25T10:37:34.641Z,11.07
2023-05-25T10:40:02.046Z,10.88
2023-05-25T10:42:29.757Z,11.45
2023-05-25T10:44:57.341Z,12.02
2023-05-25T10:47:24.557Z,10.45
2023-05-25T10:49:57.541Z,10.55
2023-05-25T10:52:31.908Z,10.50
2023-05-25T10:55:02.189Z,11.98
2023-05-25T10:57:29.016Z,11.18
2023-05-25T11:00:01.770Z,11.15
2023-05-25T11:02:28.802Z,14.02
2023-05-25T11:05:26.095Z,12.02
2023-05-25T11:07:57.748Z,12.27
2023-05-25T11:10:43.108Z,12.07
2023-05-25T11:13:31.144Z,11.65
2023-05-25T11:16:20.845Z,12.20
2023-05-25T11:18:58.932Z,13.02
2023-05-25T11:21:41.104Z,12.50
2023-05-25T11:24:15.572Z,10.65
2023-05-25T11:27:00.861Z,12.43
2023-05-25T11:29:31.506Z,12.85
2023-05-25T11:31:59.278Z,12.38
2023-05-25T11:34:26.055Z,13.05
2023-05-25T11:37:04.142Z,11.75
2023-05-25T11:39:31.742Z,13.02
2023-05-25T11:42:07.288Z,10.88
2023-05-25T11:44:36.719Z,10.68
2023-05-25T11:47:08.153Z,11.95
2023-05-25T11:49:46.148Z,10.57
2023-05-25T11:52:17.632Z,10.00
2023-05-25T11:54:44.725Z,11.68
2023-05-25T11:57:24.821Z,11.00
2023-05-25T11:59:53.455Z,10.52
2023-05-25T12:02:21.246Z,9.75
2023-05-25T12:04:55.786Z,10.70
2023-05-25T12:07:22.745Z,9.63
2023-05-25T12:09:49.308Z,9.93
2023-05-25T12:12:16.050Z,8.68
2023-05-25T12:14:49.665Z,10.43
2023-05-25T12:17:21.878Z,9.80
2023-05-25T12:19:48.895Z,10.02
2023-05-25T12:22:16.256Z,9.98
2023-05-25T12:24:42.775Z,9.80
2023-05-25T12:27:24.574Z,9.75
2023-05-25T12:29:53.012Z,10.05
2023-05-25T12:32:19.561Z,8.43
2023-05-25T12:34:46.060Z,8.73
2023-05-25T12:37:20.166Z,9.35
2023-05-25T12:39:47.236Z,9.05
2023-05-25T12:42:15.617Z,9.02
2023-05-25T12:44:43.326Z,7.95
2023-05-25T12:47:17.191Z,9.43
2023-05-25T12:49:45.220Z,8.98
2023-05-25T12:52:30.864Z,9.73
2023-05-25T12:54:57.544Z,8.70
2023-05-25T12:57:37.518Z,9.02
2023-05-25T13:00:04.858Z,9.27
2023-05-25T13:02:31.950Z,9.15
2023-05-25T13:04:58.517Z,8.80
2023-05-25T13:07:25.191Z,9.20
2023-05-25T13:09:51.678Z,8.90
2023-05-25T13:12:18.173Z,9.18
2023-05-25T13:14:44.673Z,8.65
2023-05-25T13:17:11.167Z,8.27
2023-05-25T13:19:37.628Z,8.98
2023-05-25T13:22:04.275Z,7.97
2023-05-25T13:24:30.738Z,8.65
2023-05-25T13:26:57.219Z,8.82
2023-05-25T13:29:25.548Z,7.68
2023-05-25T13:31:52.057Z,8.38
2023-05-25T13:34:18.555Z,8.00
2023-05-25T13:36:45.114Z,8.15
2023-05-25T13:39:13.512Z,8.60
2023-05-25T13:41:40.883Z,7.63
2023-05-25T13:44:07.416Z,7.60
2023-05-25T13:46:35.716Z,7.35
2023-05-25T13:49:03.459Z,7.78
2023-05-25T13:51:30.279Z,6.82
2023-05-25T13:53:56.712Z,7.55
2023-05-25T13:56:23.341Z,8.13
2023-05-25T13:58:49.920Z,7.03
2023-05-25T14:01:16.507Z,6.53
2023-05-25T14:03:43.184Z,6.18
2023-05-25T14:06:09.712Z,6.07
2023-05-25T14:08:36.222Z,5.32
2023-05-25T14:11:03.130Z,5.50
2023-05-25T14:13:29.938Z,5.30
2023-05-25T14:15:56.636Z,5.28
2023-05-25T14:18:23.223Z,6.65
2023-05-25T14:20:49.783Z,7.13
2023-05-25T14:23:18.394Z,5.10
2023-05-25T14:25:46.351Z,4.80
2023-05-25T14:28:13.124Z,4.70
2023-05-25T14:30:39.675Z,4.97
2023-05-25T14:33:06.185Z,5.15
2023-05-25T14:35:32.777Z,5.22
2023-05-25T14:37:59.197Z,6.07
2023-05-25T14:40:25.789Z,4.53
2023-05-25T14:42:55.310Z,6.22
2023-05-25T14:45:21.846Z,7.38
2023-05-25T14:47:48.388Z,5.85
2023-05-25T14:50:15.072Z,5.63
2023-05-25T14:52:41.992Z,5.38
2023-05-25T14:55:09.183Z,5.20
2023-05-25T14:57:36.546Z,4.35
2023-05-25T15:00:03.470Z,4.60
2023-05-25T15:02:30.114Z,4.85
2023-05-25T15:04:56.650Z,5.20
2023-05-25T15:07:23.113Z,5.05
2023-05-25T15:09:49.579Z,6.38
2023-05-25T15:12:16.132Z,4.95
2023-05-25T15:14:42.808Z,8.00
2023-05-25T15:17:09.761Z,5.97
2023-05-25T15:19:36.481Z,4.68
2023-05-25T15:22:03.545Z,4.53
2023-05-25T15:24:30.116Z,5.18
2023-05-25T15:26:56.644Z,4.30
2023-05-25T15:29:23.201Z,4.68
2023-05-25T15:31:52.684Z,4.63
2023-05-25T15:34:20.147Z,4.32
2023-05-25T15:36:46.620Z,4.15
2023-05-25T15:39:14.581Z,4.50
2023-05-25T15:41:41.921Z,4.65
2023-05-25T15:44:12.225Z,4.30
2023-05-25T15:46:40.193Z,3.72
2023-05-25T15:49:11.415Z,4.45
2023-05-25T15:51:41.584Z,4.47
2023-05-25T15:54:11.166Z,4.60
2023-05-25T15:56:40.109Z,5.80
2023-05-25T15:59:06.958Z,3.85
2023-05-25T16:01:36.877Z,5.15
2023-05-25T16:04:04.572Z,3.70
2023-05-25T16:06:32.014Z,4.10
2023-05-25T16:08:58.785Z,3.90
2023-05-25T16:11:27.969Z,3.97
2023-05-25T16:13:54.768Z,4.28
2023-05-25T16:16:21.579Z,4.15
2023-05-25T16:18:48.272Z,3.65
2023-05-25T16:21:14.918Z,3.65
2023-05-25T16:23:41.447Z,3.97
2023-05-25T16:26:09.987Z,3.42
2023-05-25T16:28:37.345Z,4.10
2023-05-25T16:31:07.297Z,3.33
2023-05-25T16:33:34.069Z,3.08
2023-05-25T16:36:00.843Z,3.60
2023-05-25T16:38:27.381Z,4.20
2023-05-25T16:40:53.887Z,3.63
2023-05-25T16:43:21.850Z,3.78
2023-05-25T16:45:48.577Z,4.05
2023-05-25T16:48:15.206Z,3.75
2023-05-25T16:50:41.669Z,3.28
2023-05-25T16:53:08.172Z,3.08
2023-05-25T16:55:34.687Z,3.90
2023-05-25T16:58:01.268Z,3.92
2023-05-25T17:00:27.766Z,3.33
2023-05-25T17:02:54.443Z,3.92
2023-05-25T17:05:20.996Z,3.80
2023-05-25T17:07:49.014Z,3.35
2023-05-25T17:10:15.655Z,3.92
2023-05-25T17:12:42.387Z,4.20
2023-05-25T17:15:11.096Z,3.45
2023-05-25T17:17:37.619Z,3.42
2023-05-25T17:20:04.420Z,3.35
2023-05-25T17:22:30.979Z,2.88
2023-05-25T17:24:57.953Z,3.40
2023-05-25T17:27:24.484Z,2.63
2023-05-25T17:29:50.953Z,3.10
2023-05-25T17:32:17.515Z,2.88
2023-05-25T17:34:44.004Z,4.10
2023-05-25T17:37:10.515Z,5.72
2023-05-25T17:39:37.038Z,3.35
2023-05-25T17:42:03.578Z,5.50
2023-05-25T17:44:30.071Z,3.47
2023-05-25T17:46:56.511Z,3.80
2023-05-25T17:49:23.131Z,4.38
2023-05-25T17:51:49.687Z,4.28
2023-05-25T17:54:18.575Z,3.85
2023-05-25T17:56:45.852Z,4.30
2023-05-25T17:59:12.419Z,3.75
2023-05-25T18:01:39.510Z,4.35
2023-05-25T18:04:06.408Z,4.47
2023-05-25T18:06:32.944Z,4.00
2023-05-25T18:08:59.664Z,3.80
2023-05-25T18:11:28.288Z,4.05
2023-05-25T18:13:54.891Z,4.20
2023-05-25T18:16:21.371Z,4.13
2023-05-25T18:18:48.029Z,3.92
2023-05-25T18:21:14.649Z,3.92
2023-05-25T18:23:41.115Z,4.20
2023-05-25T18:26:07.856Z,4.30
2023-05-25T18:28:34.395Z,4.18
2023-05-25T18:31:01.007Z,3.55
2023-05-25T18:33:27.585Z,4.32
2023-05-25T18:35:54.057Z,4.28
2023-05-25T18:38:20.580Z,4.53
2023-05-25T18:40:47.067Z,4.20
2023-05-25T18:43:13.552Z,4.00
2023-05-25T18:45:40.033Z,4.05
2023-05-25T18:48:10.280Z,4.10
2023-05-25T18:50:37.597Z,5.15
2023-05-25T18:53:09.711Z,5.32
2023-05-25T18:55:37.218Z,3.85
2023-05-25T18:58:04.059Z,4.22
2023-05-25T19:00:30.940Z,4.13
2023-05-25T19:02:57.638Z,7.43
2023-05-25T19:05:24.611Z,8.57
2023-05-25T19:07:58.909Z,5.25
2023-05-25T19:10:26.031Z,4.78
2023-05-25T19:12:52.621Z,5.55
2023-05-25T19:15:19.352Z,4.32
2023-05-25T19:17:46.703Z,4.13
2023-05-25T19:20:13.560Z,6.40
2023-05-25T19:22:40.354Z,5.15
2023-05-25T19:25:07.337Z,3.63
2023-05-25T19:27:33.821Z,4.13
2023-05-25T19:30:00.416Z,4.18
2023-05-25T19:32:26.931Z,4.90
2023-05-25T19:34:53.449Z,5.40
2023-05-25T19:37:19.905Z,3.90
2023-05-25T19:39:46.438Z,4.60
2023-05-25T19:42:12.872Z,5.05
2023-05-25T19:44:40.581Z,4.82
2023-05-25T19:47:07.518Z,4.63
2023-05-25T19:49:34.019Z,4.80
2023-05-25T19:52:00.453Z,4.63
2023-05-25T19:54:26.965Z,3.90
2023-05-25T19:56:53.781Z,4.18
2023-05-25T19:59:21.651Z,4.32
2023-05-25T20:01:48.522Z,5.25
2023-05-25T20:04:15.462Z,5.38
2023-05-25T20:06:41.995Z,4.30
2023-05-25T20:09:12.353Z,4.40
2023-05-25T20:11:38.845Z,5.03
2023-05-25T20:14:07.561Z,5.63
2023-05-25T20:16:34.357Z,5.40
2023-05-25T20:19:01.538Z,5.65
2023-05-25T20:21:28.850Z,6.45
2023-05-25T20:23:56.800Z,5.07
2023-05-25T20:26:23.226Z,5.20
2023-05-25T20:28:49.645Z,4.72
2023-05-25T20:31:16.167Z,4.82
2023-05-25T20:33:42.709Z,5.25
2023-05-25T20:36:09.125Z,4.80
2023-05-25T20:38:35.764Z,4.82
2023-05-25T20:41:02.363Z,4.93
2023-05-25T20:43:28.808Z,5.00
2023-05-25T20:45:55.758Z,4.68
2023-05-25T20:48:22.253Z,5.28
2023-05-25T20:50:48.725Z,5.43
2023-05-25T20:53:15.765Z,5.30
2023-05-25T20:55:42.302Z,5.18
2023-05-25T20:58:08.933Z,5.57
2023-05-25T21:00:35.652Z,5.07
2023-05-25T21:03:02.212Z,4.78
2023-05-25T21:05:28.863Z,4.15
2023-05-25T21:07:55.482Z,4.38
2023-05-25T21:10:22.167Z,5.03
2023-05-25T21:12:48.591Z,4.80
2023-05-25T21:15:15.151Z,3.97
2023-05-25T21:17:41.653Z,4.93
2023-05-25T21:20:08.501Z,4.80
2023-05-25T21:22:35.114Z,5.47
2023-05-25T21:25:01.596Z,5.82
2023-05-25T21:27:28.095Z,5.43
2023-05-25T21:29:54.930Z,4.10
2023-05-25T21:32:21.490Z,4.35
2023-05-25T21:34:48.035Z,4.93
2023-05-25T21:37:14.542Z,4.88
2023-05-25T21:39:41.120Z,3.78
2023-05-25T21:42:07.685Z,4.28
2023-05-25T21:44:34.160Z,5.05
2023-05-25T21:47:00.723Z,4.60
2023-05-25T21:49:27.175Z,4.40
2023-05-25T21:51:53.639Z,5.05
2023-05-25T21:54:20.241Z,5.22
2023-05-25T21:56:46.699Z,5.43
2023-05-25T21:59:13.171Z,5.43
2023-05-25T22:01:39.688Z,5.82
2023-05-25T22:04:06.385Z,5.43
2023-05-25T22:06:32.884Z,5.22
2023-05-25T22:08:59.588Z,5.95
2023-05-25T22:11:26.399Z,6.05
2023-05-25T22:13:52.952Z,5.47
2023-05-25T22:16:19.975Z,5.70
2023-05-25T22:18:46.450Z,6.32
2023-05-25T22:21:14.687Z,5.30
2023-05-25T22:23:41.333Z,5.03
2023-05-25T22:26:07.897Z,4.75
2023-05-25T22:28:34.382Z,4.50
2023-05-25T22:31:00.834Z,4.78
2023-05-25T22:33:27.319Z,5.32
2023-05-25T22:35:53.808Z,4.55
2023-05-25T22:38:20.387Z,4.57
2023-05-25T22:40:47.633Z,4.63
2023-05-25T22:43:14.760Z,4.88
2023-05-25T22:45:41.566Z,5.63
2023-05-25T22:48:08.860Z,4.22
2023-05-25T22:50:35.398Z,4.90
2023-05-25T22:53:01.831Z,5.88
2023-05-25T22:55:28.286Z,4.72
2023-05-25T22:57:54.754Z,4.75
2023-05-25T23:00:21.409Z,5.40
2023-05-25T23:02:47.920Z,4.13
2023-05-25T23:05:14.510Z,4.05
2023-05-25T23:07:41.369Z,5.05
2023-05-25T23:10:08.335Z,5.25
2023-05-25T23:12:34.817Z,5.60
2023-05-25T23:15:02.609Z,5.75
2023-05-25T23:17:29.131Z,5.25
2023-05-25T23:19:55.759Z,4.93
2023-05-25T23:22:22.228Z,5.05
2023-05-25T23:24:48.699Z,5.20
2023-05-25T23:27:15.165Z,5.55
2023-05-25T23:29:41.608Z,4.88
2023-05-25T23:32:08.144Z,5.22
2023-05-25T23:34:34.710Z,5.47
2023-05-25T23:37:01.385Z,5.22
2023-05-25T23:39:27.828Z,5.55
2023-05-25T23:41:54.301Z,4.82
2023-05-25T23:44:20.772Z,5.40
2023-05-25T23:46:47.240Z,5.82
2023-05-25T23:49:13.700Z,5.70
2023-05-25T23:51:40.134Z,5.30
2023-05-25T23:54:06.825Z,5.55
2023-05-25T23:56:33.260Z,5.22
2023-05-25T23:58:59.751Z,5.65
